Site contains unofficial IBTrACS data. Visit the IBTrACS Website to access archived data.

1866 Tropical Storm NOT_NAMED (1866270N25284)


IBTrACS version v04r00. Visit IBTrACS website for data access.
Please direct all questions to the IBTrACS Q and A forum

Storm track - Intensity - Wind Radii - Intensity Data - Source Data - All data

Summary Information

Storm ID 1866270N25284
Start Sep 26 12Z
Max Intensity 60 kt (Oct 1 18Z)
End Oct 2 18Z
ATCF IDs
Track status Best track data.

Storm track plot

Map of storm track

Intensity plots

Map of storm track

Radial wind information

No radial wind information for this storm


Position and Intensity Table

BASIN ISO_TIME_________ NATURE LAT LON MLC WIND
degrees north degrees east kts
NA 1866-09-26 12:00:00 TS 24.70 -75.80 35
NA 15:00:00 TS 25.34 -76.43 40
NA 18:00:00 TS 26.00 -77.00 45
NA 21:00:00 TS 26.70 -77.47 50
NA 1866-09-27 00:00:00 TS 27.40 -77.80 55
NA 03:00:00 TS 28.05 -78.02 55
NA 06:00:00 TS 28.70 -78.10 55
NA 09:00:00 TS 29.40 -78.10 55
NA 12:00:00 TS 30.10 -78.00 55
NA 15:00:00 TS 30.77 -77.83 55
NA 18:00:00 TS 31.40 -77.60 55
NA 21:00:00 TS 31.97 -77.37 55
NA 1866-09-28 00:00:00 TS 32.50 -77.10 55
NA 03:00:00 TS 33.00 -76.79 52
NA 06:00:00 TS 33.50 -76.40 50
NA 09:00:00 TS 34.05 -75.92 47
NA 12:00:00 TS 34.60 -75.40 45
NA 15:00:00 TS 35.12 -74.91 45
NA 18:00:00 TS 35.60 -74.40 45
NA 21:00:00 TS 36.02 -73.81 45
NA 1866-09-29 00:00:00 TS 36.40 -73.20 45
NA 03:00:00 TS 36.76 -72.65 45
NA 06:00:00 TS 37.10 -72.10 45
NA 09:00:00 TS 37.41 -71.50 45
NA 12:00:00 TS 37.70 -70.90 45
NA 15:00:00 TS 37.94 -70.51 45
NA 18:00:00 TS 38.30 -69.80 45
NA 21:00:00 TS 38.90 -68.42 45
NA 1866-09-30 00:00:00 TS 39.60 -66.40 45
NA 03:00:00 TS 40.21 -63.80 45
NA 06:00:00 TS 40.80 -61.00 45
NA 09:00:00 TS 41.40 -58.48 45
NA 12:00:00 TS 42.00 -56.20 45
NA 15:00:00 TS 42.63 -54.06 47
NA 18:00:00 ET 43.20 -52.30 50
NA 21:00:00 ET 43.62 -51.03 50
NA 1866-10-01 00:00:00 ET 44.00 -50.00 50
NA 03:00:00 ET 44.40 -48.86 52
NA 06:00:00 ET 44.80 -47.60 55
NA 09:00:00 ET 45.19 -46.09 55
NA 12:00:00 ET 45.60 -44.50 55
NA 15:00:00 ET 46.05 -43.01 57
NA 18:00:00 ET 46.50 -41.50 60
NA 21:00:00 ET 46.90 -39.87 60
NA 1866-10-02 00:00:00 ET 47.30 -38.20 60
NA 03:00:00 ET 47.75 -36.55 60
NA 06:00:00 ET 48.20 -34.90 60
NA 09:00:00 ET 48.60 -33.25 60
NA 12:00:00 ET 49.00 -31.60 60
NA 15:00:00 ET 49.44 -29.96 60
NA 18:00:00 ET 49.90 -28.30 60

Source Information

Agency Information
USA
TOKYO
CMA
HKO
NEWDELHI
REUNION
BOM
NADI
WELLINGTON
DS824
TD9636
TD9635
NEUMANN
MLC

All available IBTrACS Data

SEASON BASIN SUBBASIN ISO_TIME_________ NATURE LAT LON DIST2LAND LANDFALL IFLAG USA SSHS MLC LAT MLC LON MLC CLASS MLC WIND STORM SPEED STORM DIR
Year degrees north degrees east km km 1 degrees north degrees east kts kts degrees
1866 NA NA 1866-09-26 12:00:00 TS 24.70 -75.80 193 156 _____________O -1 24.70 -75.80 TS 35 17 318
1866 NA NA 15:00:00 TS 25.34 -76.43 156 135 _____________P -1 25.34 -76.43 TS 40 17 320
1866 NA NA 18:00:00 TS 26.00 -77.00 141 141 _____________O -1 26.00 -77.00 TS 45 17 325
1866 NA NA 21:00:00 TS 26.70 -77.47 185 185 _____________P -1 26.70 -77.47 TS 50 16 333
1866 NA NA 1866-09-27 00:00:00 TS 27.40 -77.80 227 221 _____________O -1 27.40 -77.80 TS 55 14 340
1866 NA NA 03:00:00 TS 28.05 -78.02 234 233 _____________P -1 28.05 -78.02 TS 55 13 348
1866 NA NA 06:00:00 TS 28.70 -78.10 235 235 _____________O -1 28.70 -78.10 TS 55 14 357
1866 NA NA 09:00:00 TS 29.40 -78.10 253 253 _____________P -1 29.40 -78.10 TS 55 14 4
1866 NA NA 12:00:00 TS 30.10 -78.00 300 290 _____________O -1 30.10 -78.00 TS 55 14 10
1866 NA NA 15:00:00 TS 30.77 -77.83 288 245 _____________P -1 30.77 -77.83 TS 55 13 15
1866 NA NA 18:00:00 TS 31.40 -77.60 245 222 _____________O -1 31.40 -77.60 TS 55 13 18
1866 NA NA 21:00:00 TS 31.97 -77.37 215 177 _____________P -1 31.97 -77.37 TS 55 12 21
1866 NA NA 1866-09-28 00:00:00 TS 32.50 -77.10 177 149 _____________O -1 32.50 -77.10 TS 55 11 26
1866 NA NA 03:00:00 TS 33.00 -76.79 149 134 _____________P -1 33.00 -76.79 TS 52 12 30
1866 NA NA 06:00:00 TS 33.50 -76.40 134 90 _____________O -1 33.50 -76.40 TS 50 13 34
1866 NA NA 09:00:00 TS 34.05 -75.92 86 84 _____________P -1 34.05 -75.92 TS 47 14 37
1866 NA NA 12:00:00 TS 34.60 -75.40 88 84 _____________O -1 34.60 -75.40 TS 45 14 38
1866 NA NA 15:00:00 TS 35.12 -74.91 91 84 _____________P -1 35.12 -74.91 TS 45 13 39
1866 NA NA 18:00:00 TS 35.60 -74.40 101 101 _____________O -1 35.60 -74.40 TS 45 13 45
1866 NA NA 21:00:00 TS 36.02 -73.81 154 154 _____________P -1 36.02 -73.81 TS 45 13 51
1866 NA NA 1866-09-29 00:00:00 TS 36.40 -73.20 216 216 _____________O -1 36.40 -73.20 TS 45 12 51
1866 NA NA 03:00:00 TS 36.76 -72.65 276 276 _____________P -1 36.76 -72.65 TS 45 11 52
1866 NA NA 06:00:00 TS 37.10 -72.10 295 295 _____________O -1 37.10 -72.10 TS 45 11 55
1866 NA NA 09:00:00 TS 37.41 -71.50 330 330 _____________P -1 37.41 -71.50 TS 45 11 58
1866 NA NA 12:00:00 TS 37.70 -70.90 356 356 _____________O -1 37.70 -70.90 TS 45 9 56
1866 NA NA 15:00:00 TS 37.94 -70.51 369 359 _____________P -1 37.94 -70.51 TS 45 11 55
1866 NA NA 18:00:00 TS 38.30 -69.80 364 336 _____________O -1 38.30 -69.80 TS 45 19 60
1866 NA NA 21:00:00 TS 38.90 -68.42 339 334 _____________P -1 38.90 -68.42 TS 45 29 64
1866 NA NA 1866-09-30 00:00:00 TS 39.60 -66.40 382 382 _____________O -1 39.60 -66.40 TS 45 38 70
1866 NA NA 03:00:00 TS 40.21 -63.80 387 385 _____________P -1 40.21 -63.80 TS 45 43 74
1866 NA NA 06:00:00 TS 40.80 -61.00 452 452 _____________O -1 40.80 -61.00 TS 45 42 74
1866 NA NA 09:00:00 TS 41.40 -58.48 471 471 _____________P -1 41.40 -58.48 TS 45 38 72
1866 NA NA 12:00:00 TS 42.00 -56.20 522 447 _____________O -1 42.00 -56.20 TS 45 35 69
1866 NA NA 15:00:00 TS 42.63 -54.06 446 383 _____________P -1 42.63 -54.06 TS 47 31 67
1866 NA NA 18:00:00 ET 43.20 -52.30 384 368 _____________O -1 43.20 -52.30 EX 50 24 66
1866 NA NA 21:00:00 ET 43.62 -51.03 375 367 _____________P -1 43.62 -51.03 EX 50 18 64
1866 NA NA 1866-10-01 00:00:00 ET 44.00 -50.00 381 381 _____________O -1 44.00 -50.00 EX 50 17 64
1866 NA NA 03:00:00 ET 44.40 -48.86 413 413 _____________P -1 44.40 -48.86 EX 52 19 65
1866 NA NA 06:00:00 ET 44.80 -47.60 472 472 _____________O -1 44.80 -47.60 EX 55 21 68
1866 NA NA 09:00:00 ET 45.19 -46.09 558 558 _____________P -1 45.19 -46.09 EX 55 23 70
1866 NA NA 12:00:00 ET 45.60 -44.50 651 651 _____________O -1 45.60 -44.50 EX 55 23 68
1866 NA NA 15:00:00 ET 46.05 -43.01 746 746 _____________P -1 46.05 -43.01 EX 57 23 67
1866 NA NA 18:00:00 ET 46.50 -41.50 844 844 _____________O -1 46.50 -41.50 EX 60 23 69
1866 NA NA 21:00:00 ET 46.90 -39.87 956 956 _____________P -1 46.90 -39.87 EX 60 24 70
1866 NA NA 1866-10-02 00:00:00 ET 47.30 -38.20 1077 1077 _____________O -1 47.30 -38.20 EX 60 24 69
1866 NA NA 03:00:00 ET 47.75 -36.55 1199 1198 _____________P -1 47.75 -36.55 EX 60 24 68
1866 NA NA 06:00:00 ET 48.20 -34.90 1314 1314 _____________O -1 48.20 -34.90 EX 60 24 69
1866 NA NA 09:00:00 ET 48.60 -33.25 1421 1417 _____________P -1 48.60 -33.25 EX 60 23 70
1866 NA NA 12:00:00 ET 49.00 -31.60 1429 1393 _____________O -1 49.00 -31.60 EX 60 23 69
1866 NA NA 15:00:00 ET 49.44 -29.96 1393 1266 _____________P -1 49.44 -29.96 EX 60 23 67
1866 NA NA 18:00:00 ET 49.90 -28.30 1259 _____________O -1 49.90 -28.30 EX 60 23 67